Time;durP1;ratioP1;P1;durP2;ratioP2;P2;SDS_P1;SDS_P2;PMS_P1;PMS_P2;Temp;Humidity;BMP_temperature;BMP_pressure;BME280_temperature;BME280_humidity;BME280_pressure;Samples;Min_cycle;Max_cycle;Signal;HPM_P1;HPM_P2
2023/10/01 00:01:03;;;;;;;12.10;9.40;;;21.50;96.70;;;;;;5006547;28;20046;-80
2023/10/01 00:03:33;;;;;;;11.38;10.00;;;21.40;96.70;;;;;;5009177;28;20081;-78
2023/10/01 00:06:01;;;;;;;10.88;9.55;;;21.40;96.70;;;;;;5007626;28;20049;-79
2023/10/01 00:08:29;;;;;;;12.07;9.95;;;21.40;96.70;;;;;;5012984;28;20053;-79
2023/10/01 00:10:57;;;;;;;11.43;8.80;;;21.40;96.70;;;;;;5016391;28;20045;-80
2023/10/01 00:13:26;;;;;;;17.98;10.13;;;21.30;96.70;;;;;;5015945;28;20435;-81
2023/10/01 00:15:55;;;;;;;12.65;9.65;;;21.20;96.70;;;;;;5012443;28;20049;-79
2023/10/01 00:18:25;;;;;;;10.05;8.13;;;21.20;96.70;;;;;;5011150;28;20141;-80
2023/10/01 00:20:54;;;;;;;9.82;8.82;;;21.20;96.70;;;;;;5010767;28;20908;-79
2023/10/01 00:23:22;;;;;;;10.00;8.48;;;21.20;96.70;;;;;;4997163;28;20063;-79
2023/10/01 00:25:50;;;;;;;12.90;9.20;;;21.10;96.70;;;;;;5013082;28;20045;-79
2023/10/01 00:28:19;;;;;;;11.25;8.75;;;21.10;96.70;;;;;;5016144;28;20092;-80
2023/10/01 00:30:48;;;;;;;9.25;8.38;;;21.10;96.70;;;;;;5005841;28;20484;-80
2023/10/01 00:33:15;;;;;;;13.82;8.68;;;21.20;96.70;;;;;;4995877;28;20448;-79
2023/10/01 00:35:43;;;;;;;11.63;8.00;;;21.20;96.70;;;;;;5034750;28;20052;-79
2023/10/01 00:38:16;;;;;;;12.85;8.60;;;21.20;96.70;;;;;;4994905;28;20661;-79
2023/10/01 00:40:44;;;;;;;10.85;8.52;;;21.10;96.70;;;;;;5017556;28;20049;-79
2023/10/01 00:43:12;;;;;;;9.27;8.27;;;21.10;96.70;;;;;;5015550;28;20061;-80
2023/10/01 00:45:44;;;;;;;8.55;7.65;;;21.00;96.70;;;;;;5003649;28;20141;-78
2023/10/01 00:48:13;;;;;;;9.95;8.02;;;20.90;96.70;;;;;;5007932;28;20566;-79
2023/10/01 00:50:43;;;;;;;11.05;8.13;;;20.80;96.70;;;;;;5004686;28;20115;-80
2023/10/01 00:53:12;;;;;;;9.23;8.20;;;20.80;96.70;;;;;;5007887;28;20041;-80
2023/10/01 00:55:40;;;;;;;10.73;8.63;;;20.70;96.70;;;;;;5009853;28;20042;-79
2023/10/01 00:58:11;;;;;;;12.57;8.13;;;20.70;96.70;;;;;;5011921;28;20041;-80
2023/10/01 01:00:39;;;;;;;9.45;8.18;;;20.60;96.70;;;;;;4990214;28;20080;-80
2023/10/01 01:03:18;;;;;;;10.73;7.70;;;20.70;96.70;;;;;;5007701;28;20172;-80
2023/10/01 01:08:46;;;;;;;8.57;6.93;;;20.60;96.70;;;;;;5012359;28;20056;-80
2023/10/01 01:11:18;;;;;;;10.18;8.07;;;20.60;96.70;;;;;;5015134;28;20038;-80
2023/10/01 01:13:52;;;;;;;8.38;7.40;;;20.60;96.70;;;;;;5009982;28;20046;-80
2023/10/01 01:16:21;;;;;;;13.65;7.60;;;20.60;96.70;;;;;;5012919;28;20128;-79
2023/10/01 01:18:51;;;;;;;8.88;7.18;;;20.60;96.70;;;;;;5008928;28;20057;-79
2023/10/01 01:21:20;;;;;;;9.05;8.15;;;20.60;96.70;;;;;;5007858;28;20049;-79
2023/10/01 01:23:50;;;;;;;9.05;7.78;;;20.60;96.70;;;;;;5005179;28;20048;-80
2023/10/01 01:26:21;;;;;;;10.18;7.85;;;20.60;96.70;;;;;;4993809;28;20067;-80
2023/10/01 01:28:49;;;;;;;9.55;7.40;;;20.60;96.70;;;;;;5012722;28;20053;-80
2023/10/01 01:31:19;;;;;;;8.63;7.28;;;20.50;96.70;;;;;;5009362;28;20125;-80
2023/10/01 01:33:55;;;;;;;11.30;7.63;;;20.50;96.70;;;;;;4992710;28;20551;-80
2023/10/01 01:36:24;;;;;;;10.30;7.13;;;20.50;96.70;;;;;;5015009;28;20041;-79
2023/10/01 01:39:10;;;;;;;8.55;7.60;;;20.40;96.70;;;;;;5012371;28;20041;-79
2023/10/01 01:41:42;;;;;;;10.83;7.03;;;20.40;96.70;;;;;;5010736;28;20049;-79
2023/10/01 01:44:14;;;;;;;7.80;6.65;;;20.40;96.70;;;;;;4992696;28;20060;-80
2023/10/01 01:46:49;;;;;;;8.50;6.93;;;20.40;96.70;;;;;;5009965;28;20573;-79
2023/10/01 01:49:18;;;;;;;9.38;6.68;;;20.40;96.70;;;;;;5005531;28;20968;-79
2023/10/01 01:52:03;;;;;;;6.80;6.10;;;20.30;96.70;;;;;;4996816;28;20046;-78
2023/10/01 01:54:40;;;;;;;7.25;6.53;;;20.30;96.70;;;;;;5016634;28;20041;-78
2023/10/01 01:57:13;;;;;;;10.10;6.22;;;20.40;96.70;;;;;;5007011;28;20050;-79
2023/10/01 01:59:43;;;;;;;8.30;6.80;;;20.30;96.70;;;;;;5010819;28;20080;-80
2023/10/01 02:02:11;;;;;;;8.15;6.20;;;20.30;96.70;;;;;;5031718;28;20045;-79
2023/10/01 02:07:33;;;;;;;6.93;6.22;;;20.10;96.70;;;;;;5013387;28;20479;-78
2023/10/01 02:10:04;;;;;;;7.93;5.95;;;20.10;96.70;;;;;;5013089;28;20053;-79
2023/10/01 02:12:36;;;;;;;7.00;6.28;;;20.10;96.70;;;;;;5014286;28;20048;-79
2023/10/01 02:15:08;;;;;;;6.15;5.45;;;20.10;96.70;;;;;;5018017;28;20046;-80
2023/10/01 02:17:36;;;;;;;7.50;5.47;;;20.00;96.70;;;;;;5013877;28;20076;-79
2023/10/01 02:20:27;;;;;;;7.50;5.90;;;20.10;96.70;;;;;;5015518;28;20088;-79
2023/10/01 02:22:58;;;;;;;8.40;5.30;;;20.10;96.70;;;;;;5012374;28;20042;-80
2023/10/01 02:25:37;;;;;;;6.53;5.90;;;20.10;96.70;;;;;;5013361;28;20069;-79
2023/10/01 02:28:13;;;;;;;7.75;6.30;;;20.10;96.70;;;;;;5007470;28;20042;-79
2023/10/01 02:30:42;;;;;;;;;;;20.20;96.70;;;;;;5014845;28;20053;-80
2023/10/01 02:33:17;;;;;;;7.95;6.10;;;20.20;96.70;;;;;;5010355;28;20051;-81
2023/10/01 02:35:48;;;;;;;8.75;6.32;;;20.10;96.70;;;;;;5014941;28;20152;-80
2023/10/01 02:41:09;;;;;;;9.25;6.88;;;20.10;96.70;;;;;;5011831;28;20041;-79
2023/10/01 02:43:41;;;;;;;8.70;6.68;;;20.00;96.70;;;;;;5016530;28;20400;-81
2023/10/01 02:46:12;;;;;;;13.15;7.55;;;20.00;96.70;;;;;;5013512;28;20053;-81
2023/10/01 02:48:41;;;;;;;7.53;6.20;;;20.00;96.70;;;;;;5012612;28;20389;-79
2023/10/01 02:51:15;;;;;;;8.25;6.47;;;20.00;96.70;;;;;;5008507;28;20112;-80
2023/10/01 02:54:05;;;;;;;8.35;6.45;;;20.10;96.70;;;;;;5003443;28;20052;-80
2023/10/01 02:57:12;;;;;;;6.82;6.22;;;20.10;96.70;;;;;;5008549;28;20513;-79
2023/10/01 03:02:44;;;;;;;8.40;6.75;;;20.00;96.70;;;;;;4955020;28;20099;-80
2023/10/01 03:05:19;;;;;;;9.07;5.97;;;20.00;96.70;;;;;;5006582;28;20488;-79
2023/10/01 03:07:50;;;;;;;8.07;6.00;;;20.00;96.70;;;;;;5016443;28;20042;-80
2023/10/01 03:10:26;;;;;;;7.13;6.15;;;19.90;96.70;;;;;;5019908;28;20050;-79
2023/10/01 03:12:57;;;;;;;6.90;5.80;;;20.00;96.70;;;;;;5015766;28;20044;-79
2023/10/01 03:15:28;;;;;;;8.40;6.63;;;19.80;96.70;;;;;;5013557;28;20882;-79
2023/10/01 03:17:58;;;;;;;9.20;6.18;;;19.90;96.70;;;;;;5013991;28;20488;-80
2023/10/01 03:23:06;;;;;;;6.53;5.78;;;20.00;96.70;;;;;;5017209;28;20691;-80
2023/10/01 03:25:41;;;;;;;10.68;6.70;;;20.00;96.70;;;;;;4994393;28;20101;-80
2023/10/01 03:28:25;;;;;;;8.02;5.80;;;19.90;96.70;;;;;;5015343;28;20049;-80
2023/10/01 03:31:01;;;;;;;8.50;6.45;;;19.90;96.70;;;;;;5024863;28;20430;-77
2023/10/01 03:33:30;;;;;;;10.90;6.63;;;19.90;96.70;;;;;;5006748;28;20054;-80
2023/10/01 03:35:58;;;;;;;7.63;6.10;;;19.80;96.70;;;;;;5013946;28;20048;-79
2023/10/01 03:38:27;;;;;;;7.05;5.82;;;19.80;96.70;;;;;;4999546;28;20050;-79
2023/10/01 03:41:06;;;;;;;8.02;6.82;;;19.80;96.70;;;;;;5015115;28;20033;-80
2023/10/01 03:43:36;;;;;;;8.80;6.35;;;19.80;96.70;;;;;;5021132;28;20050;-80
2023/10/01 03:49:55;;;;;;;8.85;6.63;;;19.80;96.70;;;;;;5010246;28;20071;-79
2023/10/01 03:51:53;;;;;;;7.65;6.35;;;19.70;96.70;;;;;;4997146;28;20077;-80
2023/10/01 03:54:52;;;;;;;8.90;6.35;;;19.60;96.70;;;;;;5017721;28;20745;-78
2023/10/01 03:57:17;;;;;;;8.32;6.43;;;19.60;96.70;;;;;;5010571;28;20136;-80
2023/10/01 03:59:53;;;;;;;8.75;6.22;;;19.50;96.70;;;;;;5009390;28;20065;-80
2023/10/01 04:02:42;;;;;;;7.78;6.47;;;19.30;96.70;;;;;;4995449;28;20070;-80
2023/10/01 04:08:13;;;;;;;8.90;6.72;;;19.40;96.70;;;;;;4922924;29;20063;-80
2023/10/01 04:10:47;;;;;;;12.65;7.00;;;19.20;96.70;;;;;;4924165;29;20218;-80
2023/10/01 04:13:20;;;;;;;9.25;6.63;;;19.20;96.70;;;;;;4922761;29;20134;-79
2023/10/01 04:16:15;;;;;;;7.28;6.53;;;19.20;96.70;;;;;;4918021;29;20226;-78
2023/10/01 04:18:43;;;;;;;9.50;6.47;;;19.30;96.70;;;;;;4925875;29;20051;-79
2023/10/01 04:23:41;;;;;;;8.32;6.45;;;19.30;96.70;;;;;;4921404;29;20070;-79
2023/10/01 04:26:13;;;;;;;10.70;6.10;;;19.20;96.70;;;;;;4910257;29;20066;-79
2023/10/01 04:28:46;;;;;;;9.18;6.53;;;19.20;96.70;;;;;;4927035;29;20051;-78
2023/10/01 04:31:18;;;;;;;10.05;7.13;;;19.10;96.70;;;;;;4923164;29;20453;-79
2023/10/01 04:33:48;;;;;;;8.10;6.50;;;19.10;96.70;;;;;;4910698;29;20067;-79
2023/10/01 04:36:17;;;;;;;8.15;6.55;;;19.10;96.70;;;;;;4922645;29;20048;-79
2023/10/01 04:38:48;;;;;;;7.40;6.25;;;19.00;96.70;;;;;;4897364;29;20088;-80
2023/10/01 04:41:16;;;;;;;8.27;6.50;;;18.90;96.70;;;;;;4915792;29;21345;-80
2023/10/01 04:43:56;;;;;;;8.00;6.30;;;19.00;96.70;;;;;;4947131;28;20057;-80
2023/10/01 04:46:29;;;;;;;10.15;6.97;;;19.00;96.70;;;;;;5006104;28;20034;-79
2023/10/01 04:49:08;;;;;;;9.90;6.22;;;18.90;96.70;;;;;;5011744;28;20749;-79
2023/10/01 04:51:48;;;;;;;19.92;14.07;;;18.80;96.70;;;;;;5008658;28;20054;-79
2023/10/01 04:54:21;;;;;;;73.65;46.28;;;18.80;96.70;;;;;;5024880;28;20053;-80
2023/10/01 04:56:50;;;;;;;56.88;38.17;;;18.80;96.70;;;;;;5006116;28;20046;-79
2023/10/01 04:59:21;;;;;;;54.85;39.13;;;18.70;96.70;;;;;;5008205;28;20034;-79
2023/10/01 05:01:56;;;;;;;51.55;38.53;;;18.60;96.70;;;;;;5006731;28;20081;-80
2023/10/01 05:04:25;;;;;;;39.47;31.10;;;18.70;96.70;;;;;;4996136;28;20042;-78
2023/10/01 05:07:05;;;;;;;41.53;29.55;;;18.70;96.70;;;;;;5011789;28;20112;-79
2023/10/01 05:09:33;;;;;;;33.55;25.95;;;18.80;96.70;;;;;;5008626;28;20041;-78
2023/10/01 05:12:03;;;;;;;28.40;21.65;;;18.70;96.70;;;;;;5014813;28;20095;-80
2023/10/01 05:14:32;;;;;;;24.38;18.42;;;18.70;96.70;;;;;;5006490;28;20044;-78
2023/10/01 05:17:07;;;;;;;16.35;12.55;;;18.80;96.70;;;;;;5004712;28;20052;-79
2023/10/01 05:19:41;;;;;;;15.10;11.02;;;18.70;96.70;;;;;;5015867;28;20050;-79
2023/10/01 05:22:58;;;;;;;10.68;8.70;;;18.70;96.70;;;;;;4963375;28;20078;-79
2023/10/01 05:25:27;;;;;;;10.93;7.80;;;18.80;96.70;;;;;;4956351;28;20047;-79
2023/10/01 05:27:58;;;;;;;11.70;7.65;;;18.70;96.70;;;;;;4972553;28;20050;-78
2023/10/01 05:30:42;;;;;;;9.68;7.18;;;18.60;96.70;;;;;;4955964;28;20084;-79
2023/10/01 05:33:12;;;;;;;12.00;7.22;;;18.70;96.70;;;;;;4951557;28;20073;-79
2023/10/01 05:35:44;;;;;;;8.23;6.18;;;18.70;96.70;;;;;;4956417;28;20050;-80
2023/10/01 05:38:14;;;;;;;7.32;6.10;;;18.60;96.70;;;;;;4971416;28;20134;-80
2023/10/01 05:40:44;;;;;;;8.15;6.07;;;18.60;96.70;;;;;;4968671;28;20055;-79
2023/10/01 05:43:13;;;;;;;7.55;5.97;;;18.50;96.70;;;;;;4966048;28;20054;-79
2023/10/01 05:45:44;;;;;;;11.25;5.78;;;18.40;96.70;;;;;;4971474;28;20098;-80
2023/10/01 05:48:18;;;;;;;6.97;5.13;;;18.40;96.70;;;;;;4959201;28;20483;-80
2023/10/01 05:50:47;;;;;;;6.63;5.22;;;18.50;96.70;;;;;;4951735;28;20138;-79
2023/10/01 05:53:18;;;;;;;8.63;5.50;;;18.60;96.70;;;;;;4954139;28;20103;-80
2023/10/01 05:55:49;;;;;;;5.60;4.75;;;18.60;96.70;;;;;;4940731;28;20058;-79
2023/10/01 05:58:17;;;;;;;7.07;5.47;;;18.60;96.70;;;;;;4950266;28;20059;-81
2023/10/01 06:03:49;;;;;;;20.08;13.38;;;18.50;96.70;;;;;;4921147;29;20142;-79
2023/10/01 06:06:26;;;;;;;23.13;13.38;;;18.50;96.70;;;;;;4908654;29;20135;-80
2023/10/01 06:09:01;;;;;;;19.65;12.93;;;18.40;96.70;;;;;;4874197;29;20059;-79
2023/10/01 06:11:39;;;;;;;14.55;9.73;;;18.40;96.70;;;;;;4897924;29;20048;-78
2023/10/01 06:14:29;;;;;;;14.77;9.52;;;18.30;96.70;;;;;;4919678;29;20051;-79
2023/10/01 06:17:05;;;;;;;7.93;6.70;;;18.40;96.70;;;;;;4914555;29;20047;-80
2023/10/01 06:19:38;;;;;;;7.85;6.25;;;18.50;96.70;;;;;;4903907;29;20068;-79
2023/10/01 06:22:13;;;;;;;8.48;6.50;;;18.50;96.70;;;;;;4908851;29;20055;-81
2023/10/01 06:24:43;;;;;;;7.55;6.72;;;18.50;96.70;;;;;;4891428;29;20052;-80
2023/10/01 06:27:18;;;;;;;7.88;7.10;;;18.40;96.70;;;;;;4906124;29;20063;-79
2023/10/01 06:29:49;;;;;;;16.23;11.88;;;18.50;96.70;;;;;;4874117;29;20625;-79
2023/10/01 06:32:19;;;;;;;14.82;10.40;;;18.40;96.70;;;;;;4886925;28;20047;-79
2023/10/01 06:34:49;;;;;;;13.80;10.48;;;18.50;96.70;;;;;;4962748;28;20097;-79
2023/10/01 06:37:20;;;;;;;12.13;10.48;;;18.70;96.70;;;;;;4946552;28;20047;-79
2023/10/01 06:39:49;;;;;;;14.48;11.00;;;18.90;96.70;;;;;;4972081;28;20046;-78
2023/10/01 06:42:20;;;;;;;15.85;9.95;;;18.90;96.70;;;;;;5007145;28;20046;-79
2023/10/01 06:44:54;;;;;;;12.85;10.27;;;18.80;96.70;;;;;;5007194;28;20076;-79
2023/10/01 06:47:25;;;;;;;12.13;10.02;;;18.90;96.70;;;;;;5009327;28;20095;-79
2023/10/01 06:49:57;;;;;;;11.88;10.30;;;18.80;96.70;;;;;;5012609;28;20073;-79
2023/10/01 06:52:29;;;;;;;11.93;8.77;;;18.90;96.70;;;;;;5009955;28;20042;-80
2023/10/01 06:54:59;;;;;;;13.40;9.32;;;18.90;96.70;;;;;;5006153;28;20533;-79
2023/10/01 06:57:28;;;;;;;11.13;9.40;;;19.00;96.70;;;;;;5006552;28;20129;-79
2023/10/01 06:59:56;;;;;;;12.05;10.27;;;19.10;96.70;;;;;;5008024;28;20034;-80
2023/10/01 07:02:27;;;;;;;13.63;10.05;;;19.10;96.70;;;;;;5013620;28;20548;-80
2023/10/01 07:05:01;;;;;;;11.95;9.85;;;19.10;96.70;;;;;;5012119;28;20045;-80
2023/10/01 07:07:35;;;;;;;12.68;9.88;;;19.10;96.70;;;;;;5009546;28;20038;-80
2023/10/01 07:10:10;;;;;;;16.40;9.77;;;19.20;96.70;;;;;;5009390;28;20410;-81
2023/10/01 07:12:53;;;;;;;13.45;9.98;;;19.40;96.70;;;;;;5006770;28;20103;-82
2023/10/01 07:15:25;;;;;;;11.35;9.30;;;19.50;96.70;;;;;;5009986;28;20133;-82
2023/10/01 07:17:54;;;;;;;13.38;10.05;;;19.60;96.70;;;;;;5007630;28;20042;-81
2023/10/01 07:20:25;;;;;;;14.75;9.88;;;19.60;96.70;;;;;;5013813;28;20044;-80
2023/10/01 07:22:54;;;;;;;15.43;9.63;;;19.60;96.70;;;;;;4991701;28;20567;-82
2023/10/01 07:25:43;;;;;;;11.70;9.63;;;19.70;96.70;;;;;;5007908;28;20054;-82
2023/10/01 07:28:18;;;;;;;10.50;8.35;;;19.80;96.70;;;;;;5005781;28;20077;-81
2023/10/01 07:30:51;;;;;;;9.35;7.07;;;19.80;96.70;;;;;;4991180;28;20057;-78
2023/10/01 07:33:20;;;;;;;8.88;7.22;;;19.80;96.70;;;;;;5009401;28;20066;-82
2023/10/01 07:36:01;;;;;;;9.02;6.75;;;19.90;96.70;;;;;;5009908;28;20480;-84
2023/10/01 07:38:32;;;;;;;9.10;6.05;;;20.00;96.70;;;;;;5008557;28;20042;-82
2023/10/01 07:41:12;;;;;;;7.35;6.50;;;20.10;96.70;;;;;;4992079;28;20125;-82
2023/10/01 07:43:42;;;;;;;9.13;6.72;;;20.20;96.70;;;;;;5008808;28;20038;-83
2023/10/01 07:46:11;;;;;;;7.63;6.85;;;20.30;96.70;;;;;;4991983;28;20056;-82
2023/10/01 07:48:46;;;;;;;10.73;6.97;;;20.30;96.70;;;;;;5008416;28;20073;-81
2023/10/01 07:51:26;;;;;;;13.85;11.20;;;20.40;96.70;;;;;;4997065;28;20519;-82
2023/10/01 07:54:02;;;;;;;8.75;7.85;;;20.50;96.70;;;;;;5010073;28;20562;-84
2023/10/01 07:56:32;;;;;;;10.52;9.32;;;20.60;96.70;;;;;;5009769;28;20136;-83
2023/10/01 08:02:07;;;;;;;10.85;8.48;;;20.70;96.70;;;;;;5019653;28;20609;-81
2023/10/01 08:04:50;;;;;;;11.68;8.27;;;20.80;96.70;;;;;;5006376;28;20495;-82
2023/10/01 08:07:22;;;;;;;11.68;8.52;;;20.90;96.70;;;;;;5006272;28;20056;-79
2023/10/01 08:09:54;;;;;;;9.52;8.27;;;21.00;96.70;;;;;;5006392;28;20128;-78
2023/10/01 08:15:38;;;;;;;10.55;7.68;;;21.10;96.70;;;;;;4965990;28;20501;-80
2023/10/01 08:21:00;;;;;;;16.60;12.40;;;21.30;96.70;;;;;;5005422;28;20046;-83
2023/10/01 08:23:33;;;;;;;14.52;11.00;;;21.40;96.70;;;;;;5008066;28;20056;-83
2023/10/01 08:26:43;;;;;;;15.13;12.20;;;21.50;96.70;;;;;;5008511;28;20353;-83
2023/10/01 08:28:57;;;;;;;8.23;6.28;;;21.60;96.70;;;;;;5008703;28;20080;-82
2023/10/01 08:32:07;;;;;;;8.32;7.45;;;21.70;96.70;;;;;;5008551;28;20503;-81
2023/10/01 08:34:59;;;;;;;7.75;6.93;;;21.80;96.70;;;;;;5007173;28;20045;-81
2023/10/01 08:37:22;;;;;;;13.93;6.88;;;21.90;96.70;;;;;;5007562;28;20053;-82
2023/10/01 08:39:53;;;;;;;15.00;7.78;;;22.10;96.70;;;;;;4990775;28;20531;-83
2023/10/01 08:42:28;;;;;;;10.45;9.25;;;22.20;96.70;;;;;;5007526;28;20120;-81
2023/10/01 08:45:06;;;;;;;17.48;9.95;;;22.20;96.70;;;;;;5006699;28;20503;-83
2023/10/01 08:47:34;;;;;;;10.27;8.13;;;22.30;96.70;;;;;;5007016;28;20053;-83
2023/10/01 08:52:57;;;;;;;11.88;8.02;;;22.40;96.70;;;;;;5009344;28;20050;-83
2023/10/01 09:00:52;;;;;;;8.65;7.72;;;22.60;96.70;;;;;;5007961;28;20081;-85
2023/10/01 09:03:34;;;;;;;9.70;8.07;;;22.70;96.70;;;;;;5008793;28;20061;-88
2023/10/01 09:06:05;;;;;;;10.70;9.25;;;22.90;96.70;;;;;;5007672;28;20104;-84
2023/10/01 09:08:45;;;;;;;13.45;8.93;;;23.10;96.70;;;;;;5008064;28;20129;-84
2023/10/01 09:11:16;;;;;;;11.30;8.50;;;23.10;96.70;;;;;;5007432;28;20053;-83
2023/10/01 09:13:58;;;;;;;9.55;7.25;;;23.20;96.70;;;;;;5007172;28;20053;-86
2023/10/01 09:16:32;;;;;;;12.70;8.95;;;23.20;96.70;;;;;;4991502;28;20419;-87
2023/10/01 09:19:04;;;;;;;11.77;8.75;;;23.30;96.70;;;;;;4989680;28;20056;-87
2023/10/01 09:21:41;;;;;;;13.07;9.50;;;23.40;96.70;;;;;;5007872;28;20104;-86
2023/10/01 09:24:38;;;;;;;9.50;6.78;;;23.50;96.70;;;;;;5008109;28;20049;-85
2023/10/01 09:27:09;;;;;;;10.23;6.30;;;23.60;96.70;;;;;;4999519;28;20130;-84
2023/10/01 09:29:44;;;;;;;7.05;6.05;;;23.60;96.70;;;;;;5038450;28;20054;-85
2023/10/01 09:32:19;;;;;;;7.70;6.22;;;23.70;96.70;;;;;;4989496;28;20487;-86
2023/10/01 09:34:58;;;;;;;9.52;5.90;;;23.90;96.70;;;;;;5007736;28;20068;-86
2023/10/01 09:37:35;;;;;;;5.80;5.25;;;24.10;96.70;;;;;;5000568;28;20722;-82
2023/10/01 09:40:13;;;;;;;14.25;11.05;;;24.30;96.70;;;;;;4990601;28;20049;-81
2023/10/01 09:42:55;;;;;;;7.47;5.53;;;24.40;96.70;;;;;;5005967;28;20073;-80
2023/10/01 09:45:29;;;;;;;8.55;5.25;;;24.40;96.70;;;;;;5006879;28;20129;-82
2023/10/01 09:48:07;;;;;;;9.20;4.75;;;24.50;96.70;;;;;;4989590;28;20112;-83
2023/10/01 09:50:42;;;;;;;6.63;4.38;;;24.70;96.70;;;;;;5006783;28;20049;-83
2023/10/01 09:53:13;;;;;;;6.43;4.22;;;24.90;96.70;;;;;;5009285;28;20057;-83
2023/10/01 09:55:55;;;;;;;7.63;5.65;;;25.00;96.70;;;;;;5005254;28;20458;-82
2023/10/01 09:58:25;;;;;;;5.93;4.65;;;25.20;96.70;;;;;;5001940;28;20049;-82
2023/10/01 10:00:55;;;;;;;6.03;4.53;;;25.30;96.70;;;;;;5005235;28;20726;-80
2023/10/01 10:03:24;;;;;;;7.40;4.75;;;25.30;96.70;;;;;;5003873;28;20125;-82
2023/10/01 10:05:53;;;;;;;4.40;4.00;;;25.40;96.70;;;;;;5007814;28;20041;-82
2023/10/01 10:08:26;;;;;;;5.15;3.88;;;25.70;96.70;;;;;;5006556;28;20046;-83
2023/10/01 10:10:55;;;;;;;7.20;4.07;;;25.80;96.70;;;;;;5003969;28;20553;-80
2023/10/01 10:13:36;;;;;;;5.35;3.83;;;25.80;96.70;;;;;;5003379;28;20050;-80
2023/10/01 10:19:09;;;;;;;7.10;3.42;;;25.90;96.70;;;;;;5003896;28;20133;-80
2023/10/01 10:22:25;;;;;;;6.15;3.28;;;26.10;96.70;;;;;;5009992;28;20551;-82
2023/10/01 10:25:25;;;;;;;6.57;3.15;;;26.10;96.70;;;;;;5004254;28;20116;-82
2023/10/01 10:27:56;;;;;;;5.32;3.35;;;26.30;96.70;;;;;;4992261;28;20080;-82
2023/10/01 10:30:27;;;;;;;8.05;6.65;;;26.40;96.70;;;;;;4990968;28;20053;-81
2023/10/01 10:33:29;;;;;;;3.45;3.15;;;26.40;96.70;;;;;;5008558;28;20058;-82
2023/10/01 10:36:50;;;;;;;7.22;3.10;;;26.80;96.70;;;;;;4970549;28;20145;-83
2023/10/01 10:40:13;;;;;;;4.90;3.22;;;27.00;96.70;;;;;;5002317;28;20045;-84
2023/10/01 10:42:46;;;;;;;4.85;2.80;;;27.20;96.70;;;;;;5010460;28;20050;-83
2023/10/01 10:45:22;;;;;;;3.75;2.88;;;27.20;96.70;;;;;;5011198;28;20046;-81
2023/10/01 10:47:58;;;;;;;4.68;3.42;;;27.20;96.70;;;;;;5008981;28;20495;-83
2023/10/01 10:50:50;;;;;;;5.85;3.00;;;27.40;96.70;;;;;;4991477;28;20128;-84
2023/10/01 10:53:42;;;;;;;8.02;3.30;;;27.30;96.70;;;;;;5006664;28;20042;-85
2023/10/01 10:56:13;;;;;;;3.60;2.30;;;27.50;96.70;;;;;;5009445;28;20045;-83
2023/10/01 10:58:46;;;;;;;5.50;2.67;;;27.60;96.70;;;;;;5010246;28;20049;-85
2023/10/01 11:01:22;;;;;;;3.40;3.08;;;27.60;96.70;;;;;;5008646;28;20523;-82
2023/10/01 11:03:56;;;;;;;3.28;2.95;;;27.60;96.70;;;;;;5010241;28;20045;-83
2023/10/01 11:06:39;;;;;;;4.00;2.90;;;27.60;96.70;;;;;;5010478;28;20125;-83
2023/10/01 11:09:27;;;;;;;6.13;3.05;;;27.60;96.70;;;;;;5009562;28;20111;-84
2023/10/01 11:12:05;;;;;;;3.45;2.50;;;27.90;96.70;;;;;;5008598;28;20104;-81
2023/10/01 11:14:35;;;;;;;3.72;2.38;;;28.20;96.70;;;;;;5006825;28;20081;-83
2023/10/01 11:17:06;;;;;;;10.90;2.67;;;28.30;96.70;;;;;;5007961;28;20477;-78
2023/10/01 11:19:37;;;;;;;2.40;2.20;;;28.30;96.70;;;;;;5005565;28;20491;-77
2023/10/01 11:22:06;;;;;;;3.03;2.40;;;28.50;96.70;;;;;;5005647;28;20046;-81
2023/10/01 11:24:37;;;;;;;4.28;2.15;;;28.80;96.70;;;;;;4998507;28;20034;-78
2023/10/01 11:27:18;;;;;;;5.95;2.80;;;28.90;96.70;;;;;;5019568;28;20096;-76
2023/10/01 11:30:17;;;;;;;3.97;2.75;;;29.00;96.70;;;;;;5000785;28;20073;-78
2023/10/01 11:35:41;;;;;;;4.47;3.03;;;29.10;96.70;;;;;;5003453;28;20046;-77
2023/10/01 11:38:11;;;;;;;4.30;2.40;;;29.10;96.70;;;;;;5007142;28;20038;-78
2023/10/01 11:43:35;;;;;;;6.13;2.45;;;29.40;96.70;;;;;;5000434;28;20061;-78
2023/10/01 11:46:20;;;;;;;3.13;2.17;;;29.40;96.70;;;;;;5007210;28;20054;-78
2023/10/01 11:49:02;;;;;;;3.97;2.08;;;29.40;96.70;;;;;;4997736;28;20040;-77
2023/10/01 11:51:44;;;;;;;2.72;2.10;;;29.40;96.70;;;;;;5006006;28;20793;-78
2023/10/01 11:54:14;;;;;;;3.83;2.15;;;29.60;96.70;;;;;;5006473;28;20045;-80
2023/10/01 11:56:44;;;;;;;2.75;2.13;;;29.90;96.70;;;;;;5003153;28;20439;-78
2023/10/01 11:59:20;;;;;;;2.35;2.10;;;30.10;96.70;;;;;;5005191;28;20053;-81
2023/10/01 12:01:50;;;;;;;5.40;2.45;;;30.40;96.70;;;;;;5003334;28;20053;-83
2023/10/01 12:07:18;;;;;;;3.35;1.85;;;30.60;96.70;;;;;;5004190;28;20046;-81
2023/10/01 12:09:49;;;;;;;3.58;2.30;;;30.80;96.70;;;;;;4989198;28;20113;-82
2023/10/01 12:12:19;;;;;;;2.95;2.20;;;30.90;96.70;;;;;;5007249;28;20053;-80
2023/10/01 12:14:56;;;;;;;2.60;2.05;;;30.80;96.60;;;;;;5006995;28;20041;-81
2023/10/01 12:17:26;;;;;;;4.05;2.42;;;30.80;96.60;;;;;;5006616;28;20091;-83
2023/10/01 12:19:57;;;;;;;4.20;2.38;;;30.80;96.70;;;;;;5004298;28;20052;-79
2023/10/01 12:22:28;;;;;;;2.65;2.13;;;30.90;96.60;;;;;;5005083;28;20053;-81
2023/10/01 12:24:57;;;;;;;3.92;1.90;;;31.00;96.70;;;;;;5005906;28;20045;-79
2023/10/01 12:27:40;;;;;;;5.80;2.30;;;31.20;96.70;;;;;;4988980;28;20050;-78
2023/10/01 12:30:28;;;;;;;3.47;2.13;;;31.30;96.70;;;;;;5031883;28;20100;-76
2023/10/01 12:33:00;;;;;;;2.55;2.00;;;31.30;96.70;;;;;;5002011;28;20438;-76
2023/10/01 12:35:28;;;;;;;2.00;1.70;;;31.40;96.70;;;;;;5003308;28;20038;-78
2023/10/01 12:40:54;;;;;;;3.25;1.73;;;31.30;96.70;;;;;;5002768;28;20064;-77
2023/10/01 12:43:42;;;;;;;3.10;1.90;;;31.20;96.70;;;;;;4993169;28;20050;-78
2023/10/01 12:46:12;;;;;;;2.20;1.70;;;31.20;96.70;;;;;;5004425;28;20096;-78
2023/10/01 12:51:38;;;;;;;2.70;2.10;;;31.50;96.70;;;;;;5005138;28;20503;-78
2023/10/01 12:54:08;;;;;;;2.67;1.70;;;31.60;95.90;;;;;;4999184;28;20133;-77
2023/10/01 12:56:48;;;;;;;3.00;1.48;;;31.70;96.70;;;;;;5030395;28;20194;-78
2023/10/01 12:59:19;;;;;;;2.03;1.73;;;31.60;96.70;;;;;;5003658;28;20041;-77
2023/10/01 13:01:51;;;;;;;3.30;1.98;;;31.50;96.70;;;;;;5002119;28;20085;-77
2023/10/01 13:04:32;;;;;;;5.10;1.60;;;31.40;96.70;;;;;;5004522;28;20123;-76
2023/10/01 13:07:04;;;;;;;2.13;1.58;;;31.40;96.70;;;;;;5001565;28;20073;-76
2023/10/01 13:12:14;;;;;;;3.38;1.70;;;31.50;96.70;;;;;;5003691;28;20057;-76
2023/10/01 13:14:43;;;;;;;2.65;1.40;;;31.70;96.70;;;;;;5004801;28;20050;-74
2023/10/01 13:17:19;;;;;;;2.22;1.60;;;31.80;96.70;;;;;;4998456;28;20045;-75
2023/10/01 13:19:48;;;;;;;3.13;1.73;;;31.80;96.40;;;;;;5003521;28;20049;-76
2023/10/01 13:22:18;;;;;;;1.58;1.42;;;31.90;96.70;;;;;;5003587;28;20131;-75
2023/10/01 13:24:54;;;;;;;3.13;1.83;;;31.70;96.70;;;;;;5003708;28;20112;-82
2023/10/01 13:27:23;;;;;;;5.85;1.98;;;31.70;96.70;;;;;;5003487;28;20046;-75
2023/10/01 13:30:14;;;;;;;2.10;1.50;;;31.70;96.70;;;;;;5006062;28;20046;-83
2023/10/01 13:32:57;;;;;;;1.38;1.17;;;31.70;96.70;;;;;;5003309;28;20050;-78
2023/10/01 13:35:49;;;;;;;4.22;1.50;;;31.60;96.70;;;;;;5005897;28;20049;-78
2023/10/01 13:38:52;;;;;;;1.98;1.30;;;31.80;96.70;;;;;;5001089;28;20042;-78
2023/10/01 14:09:08;;;;;;;2.63;1.17;;;32.80;92.40;;;;;;5008518;28;20509;-77
2023/10/01 14:11:40;;;;;;;2.40;1.25;;;33.00;95.50;;;;;;5006470;28;20049;-77
2023/10/01 14:14:16;;;;;;;4.07;1.40;;;33.20;93.80;;;;;;5008472;28;20139;-79
2023/10/01 14:17:12;;;;;;;1.80;1.40;;;33.50;92.40;;;;;;5002334;28;20235;-80
2023/10/01 14:19:38;;;;;;;1.65;1.17;;;33.70;92.50;;;;;;5008474;28;20042;-77
2023/10/01 14:22:06;;;;;;;1.20;1.10;;;33.90;92.50;;;;;;5008359;28;20493;-78
2023/10/01 14:24:42;;;;;;;1.58;1.23;;;34.10;92.20;;;;;;4990812;28;20057;-79
2023/10/01 14:27:24;;;;;;;;;;;34.20;90.20;;;;;;5006388;28;20125;-78
2023/10/01 14:32:40;;;;;;;2.42;1.20;;;34.50;89.40;;;;;;5011023;28;20141;-77
2023/10/01 14:35:14;;;;;;;3.63;1.30;;;34.70;88.20;;;;;;4999957;28;20108;-78
2023/10/01 14:38:06;;;;;;;3.63;1.25;;;34.90;88.30;;;;;;5006550;28;20545;-76
2023/10/01 14:40:32;;;;;;;4.75;1.40;;;35.10;87.10;;;;;;5012565;28;20045;-81
2023/10/01 14:43:00;;;;;;;3.70;1.50;;;35.20;87.40;;;;;;5006806;28;20458;-81
2023/10/01 14:45:33;;;;;;;4.45;1.42;;;35.50;86.50;;;;;;5008830;28;20538;-81
2023/10/01 14:48:10;;;;;;;1.40;1.27;;;35.90;85.70;;;;;;5005886;28;20041;-79
2023/10/01 14:50:41;;;;;;;3.00;1.60;;;36.10;85.70;;;;;;5010867;28;20053;-80
2023/10/01 14:53:11;;;;;;;3.40;1.35;;;36.60;86.10;;;;;;5002388;28;20152;-81
2023/10/01 14:55:42;;;;;;;1.70;1.40;;;36.80;85.70;;;;;;4989614;28;20407;-81